sensor_id;sensor_type;location;lat;lon;timestamp;pressure;altitude;pressure_sealevel;temperature;humidity
44531;BME280;30240;47.418;0.700;2022-07-01T00:01:44;100615.0390625;;;12.9;77.09
44531;BME280;30240;47.418;0.700;2022-07-01T00:04:09;100615.0390625;;;12.9;77.09
44531;BME280;30240;47.418;0.700;2022-07-01T00:06:34;100618.71948242188;;;12.89;77.37
44531;BME280;30240;47.418;0.700;2022-07-01T00:08:59;100619.32983398438;;;12.8;77.41
44531;BME280;30240;47.418;0.700;2022-07-01T00:11:24;100624.49951171875;;;12.76;77.87
44531;BME280;30240;47.418;0.700;2022-07-01T00:13:49;100628.15551757812;;;12.76;78.19
44531;BME280;30240;47.418;0.700;2022-07-01T00:16:14;100628.15551757812;;;12.76;78.19
44531;BME280;30240;47.418;0.700;2022-07-01T00:18:38;100628.20434570312;;;12.73;78.15
44531;BME280;30240;47.418;0.700;2022-07-01T00:21:04;100633.84399414062;;;12.63;78.44
44531;BME280;30240;47.418;0.700;2022-07-01T00:23:29;100634.90600585938;;;12.63;78.58
44531;BME280;30240;47.418;0.700;2022-07-01T00:25:53;100636.1083984375;;;12.68;78.75
44531;BME280;30240;47.418;0.700;2022-07-01T00:28:19;100636.1083984375;;;12.68;78.75
44531;BME280;30240;47.418;0.700;2022-07-01T00:30:43;100641.6015625;;;12.46;79.0
44531;BME280;30240;47.418;0.700;2022-07-01T00:33:08;100638.4521484375;;;12.46;79.15
44531;BME280;30240;47.418;0.700;2022-07-01T00:35:33;100639.22119140625;;;12.58;79.08
44531;BME280;30240;47.418;0.700;2022-07-01T00:37:58;100641.46118164062;;;12.52;79.02
44531;BME280;30240;47.418;0.700;2022-07-01T00:40:24;100644.06127929688;;;12.41;79.43
44531;BME280;30240;47.418;0.700;2022-07-01T00:42:49;100644.06127929688;;;12.41;79.43
44531;BME280;30240;47.418;0.700;2022-07-01T00:45:14;100649.3896484375;;;12.35;79.89
44531;BME280;30240;47.418;0.700;2022-07-01T00:47:40;100648.40698242188;;;12.27;80.01
44531;BME280;30240;47.418;0.700;2022-07-01T00:50:06;100648.54736328125;;;12.28;79.94
44531;BME280;30240;47.418;0.700;2022-07-01T00:52:29;100649.93896484375;;;12.28;80.15
44531;BME280;30240;47.418;0.700;2022-07-01T00:54:54;100649.93896484375;;;12.28;80.15
44531;BME280;30240;47.418;0.700;2022-07-01T00:57:19;100650.23193359375;;;12.25;80.25
44531;BME280;30240;47.418;0.700;2022-07-01T00:59:43;100652.32543945312;;;12.21;80.43
44531;BME280;30240;47.418;0.700;2022-07-01T01:02:09;100653.15551757812;;;12.17;81.06
44531;BME280;30240;47.418;0.700;2022-07-01T01:04:34;100655.3466796875;;;12.14;80.8
44531;BME280;30240;47.418;0.700;2022-07-01T01:07:00;100655.3466796875;;;12.14;80.8
44531;BME280;30240;47.418;0.700;2022-07-01T01:09:24;100659.6923828125;;;12.0;81.44
44531;BME280;30240;47.418;0.700;2022-07-01T01:11:48;100663.92211914062;;;12.01;81.35
44531;BME280;30240;47.418;0.700;2022-07-01T01:14:13;100663.720703125;;;12.0;81.64
44531;BME280;30240;47.418;0.700;2022-07-01T01:16:38;100658.43505859375;;;11.9;81.99
44531;BME280;30240;47.418;0.700;2022-07-01T01:19:04;100658.43505859375;;;11.9;81.99
44531;BME280;30240;47.418;0.700;2022-07-01T01:21:29;100661.63940429688;;;11.85;82.4
44531;BME280;30240;47.418;0.700;2022-07-01T01:23:53;100665.1123046875;;;11.9;82.39
44531;BME280;30240;47.418;0.700;2022-07-01T01:26:21;100664.0380859375;;;11.79;82.25
44531;BME280;30240;47.418;0.700;2022-07-01T01:28:44;100667.21801757812;;;11.86;82.21
44531;BME280;30240;47.418;0.700;2022-07-01T01:31:08;100667.21801757812;;;11.86;82.21
44531;BME280;30240;47.418;0.700;2022-07-01T01:33:33;100668.9697265625;;;11.86;81.99
44531;BME280;30240;47.418;0.700;2022-07-01T01:35:59;100672.46704101562;;;11.83;82.24
44531;BME280;30240;47.418;0.700;2022-07-01T01:38:23;100673.1689453125;;;11.89;82.33
44531;BME280;30240;47.418;0.700;2022-07-01T01:40:48;100675.5859375;;;11.87;82.5
44531;BME280;30240;47.418;0.700;2022-07-01T01:43:13;100675.5859375;;;11.87;82.5
44531;BME280;30240;47.418;0.700;2022-07-01T01:45:38;100672.35107421875;;;11.85;82.93
44531;BME280;30240;47.418;0.700;2022-07-01T01:48:04;100671.67358398438;;;11.81;82.96
44531;BME280;30240;47.418;0.700;2022-07-01T01:50:28;100667.87719726562;;;11.86;83.12
44531;BME280;30240;47.418;0.700;2022-07-01T01:52:53;100672.6318359375;;;11.82;83.2
44531;BME280;30240;47.418;0.700;2022-07-01T01:55:19;100672.6318359375;;;11.82;83.2
44531;BME280;30240;47.418;0.700;2022-07-01T01:57:43;100675.830078125;;;11.78;83.48
44531;BME280;30240;47.418;0.700;2022-07-01T02:00:09;100676.6845703125;;;11.78;83.66
44531;BME280;30240;47.418;0.700;2022-07-01T02:02:34;100680.45043945312;;;11.78;83.76
44531;BME280;30240;47.418;0.700;2022-07-01T02:04:59;100679.43725585938;;;11.75;83.78
44531;BME280;30240;47.418;0.700;2022-07-01T02:07:24;100679.43725585938;;;11.75;83.78
44531;BME280;30240;47.418;0.700;2022-07-01T02:09:49;100684.5458984375;;;11.75;84.19
44531;BME280;30240;47.418;0.700;2022-07-01T02:12:14;100685.35766601562;;;11.74;84.26
44531;BME280;30240;47.418;0.700;2022-07-01T02:14:39;100685.38818359375;;;11.66;84.29
44531;BME280;30240;47.418;0.700;2022-07-01T02:17:03;100686.85913085938;;;11.72;84.62
44531;BME280;30240;47.418;0.700;2022-07-01T02:19:28;100689.7216796875;;;11.68;84.72
44531;BME280;30240;47.418;0.700;2022-07-01T02:21:54;100689.7216796875;;;11.68;84.72
44531;BME280;30240;47.418;0.700;2022-07-01T02:24:18;100694.2626953125;;;11.66;84.84
44531;BME280;30240;47.418;0.700;2022-07-01T02:26:44;100698.91357421875;;;11.61;85.19
44531;BME280;30240;47.418;0.700;2022-07-01T02:29:09;100696.88110351562;;;11.64;85.97
44531;BME280;30240;47.418;0.700;2022-07-01T02:31:33;100700.78125;;;11.57;85.51
44531;BME280;30240;47.418;0.700;2022-07-01T02:33:58;100700.78125;;;11.57;85.51
44531;BME280;30240;47.418;0.700;2022-07-01T02:36:23;100703.41186523438;;;11.54;86.06
44531;BME280;30240;47.418;0.700;2022-07-01T02:38:48;100699.01733398438;;;11.54;86.11
44531;BME280;30240;47.418;0.700;2022-07-01T02:41:13;100702.392578125;;;11.47;87.07
44531;BME280;30240;47.418;0.700;2022-07-01T02:43:38;100702.5146484375;;;11.5;86.47
44531;BME280;30240;47.418;0.700;2022-07-01T02:46:04;100702.5146484375;;;11.5;86.47
44531;BME280;30240;47.418;0.700;2022-07-01T02:48:28;100694.67163085938;;;11.47;86.37
44531;BME280;30240;47.418;0.700;2022-07-01T02:50:54;100696.62475585938;;;11.5;85.99
44531;BME280;30240;47.418;0.700;2022-07-01T02:53:19;100703.20434570312;;;11.55;86.03
44531;BME280;30240;47.418;0.700;2022-07-01T02:55:43;100704.98657226562;;;11.54;86.13
44531;BME280;30240;47.418;0.700;2022-07-01T02:58:08;100704.98657226562;;;11.54;86.13
44531;BME280;30240;47.418;0.700;2022-07-01T03:00:34;100702.9052734375;;;11.47;86.58
44531;BME280;30240;47.418;0.700;2022-07-01T03:02:59;100696.98486328125;;;11.35;86.64
44531;BME280;30240;47.418;0.700;2022-07-01T03:05:24;100701.81274414062;;;11.34;86.8
44531;BME280;30240;47.418;0.700;2022-07-01T03:07:49;100704.82177734375;;;11.4;87.18
44531;BME280;30240;47.418;0.700;2022-07-01T03:10:14;100704.82177734375;;;11.4;87.18
44531;BME280;30240;47.418;0.700;2022-07-01T03:12:38;100706.84204101562;;;11.34;87.07
44531;BME280;30240;47.418;0.700;2022-07-01T03:15:05;100705.58471679688;;;11.31;87.46
44531;BME280;30240;47.418;0.700;2022-07-01T03:17:30;100708.11767578125;;;11.3;87.0
44531;BME280;30240;47.418;0.700;2022-07-01T03:19:55;100710.13793945312;;;11.34;87.03
44531;BME280;30240;47.418;0.700;2022-07-01T03:22:19;100710.13793945312;;;11.34;87.03
44531;BME280;30240;47.418;0.700;2022-07-01T03:24:44;100711.70043945312;;;11.28;87.17
44531;BME280;30240;47.418;0.700;2022-07-01T03:27:09;100712.17041015625;;;11.3;87.06
44531;BME280;30240;47.418;0.700;2022-07-01T03:29:34;100717.63916015625;;;11.23;87.23
44531;BME280;30240;47.418;0.700;2022-07-01T03:31:59;100726.13525390625;;;11.28;87.28
44531;BME280;30240;47.418;0.700;2022-07-01T03:34:24;100726.13525390625;;;11.28;87.28
44531;BME280;30240;47.418;0.700;2022-07-01T03:36:49;100723.4619140625;;;11.27;87.62
44531;BME280;30240;47.418;0.700;2022-07-01T03:39:14;100725.06103515625;;;11.28;87.36
44531;BME280;30240;47.418;0.700;2022-07-01T03:41:38;100729.06494140625;;;11.27;87.39
44531;BME280;30240;47.418;0.700;2022-07-01T03:44:04;100733.34350585938;;;11.15;87.68
44531;BME280;30240;47.418;0.700;2022-07-01T03:46:28;100736.57836914062;;;11.23;88.07
44531;BME280;30240;47.418;0.700;2022-07-01T03:48:53;100736.57836914062;;;11.23;88.07
44531;BME280;30240;47.418;0.700;2022-07-01T03:51:18;100739.1845703125;;;11.17;88.16
44531;BME280;30240;47.418;0.700;2022-07-01T03:53:43;100742.54150390625;;;11.16;88.93
44531;BME280;30240;47.418;0.700;2022-07-01T03:56:08;100744.36645507812;;;11.22;88.04
44531;BME280;30240;47.418;0.700;2022-07-01T03:58:33;100745.88012695312;;;11.15;88.38
44531;BME280;30240;47.418;0.700;2022-07-01T04:00:58;100745.88012695312;;;11.15;88.38
44531;BME280;30240;47.418;0.700;2022-07-01T04:03:23;100750.78125;;;11.02;89.09
44531;BME280;30240;47.418;0.700;2022-07-01T04:05:48;100756.17065429688;;;11.05;88.86
44531;BME280;30240;47.418;0.700;2022-07-01T04:08:14;100760.26611328125;;;11.09;88.69
44531;BME280;30240;47.418;0.700;2022-07-01T04:10:40;100762.96997070312;;;10.96;89.39
44531;BME280;30240;47.418;0.700;2022-07-01T04:13:04;100762.96997070312;;;10.96;89.39
44531;BME280;30240;47.418;0.700;2022-07-01T04:15:29;100767.1875;;;10.96;89.07
44531;BME280;30240;47.418;0.700;2022-07-01T04:17:54;100769.73266601562;;;10.96;89.53
44531;BME280;30240;47.418;0.700;2022-07-01T04:20:18;100768.34106445312;;;10.96;89.26
44531;BME280;30240;47.418;0.700;2022-07-01T04:22:43;100766.73583984375;;;10.91;89.45
44531;BME280;30240;47.418;0.700;2022-07-01T04:25:08;100766.73583984375;;;10.91;89.45
44531;BME280;30240;47.418;0.700;2022-07-01T04:27:34;100771.06323242188;;;10.91;89.49
44531;BME280;30240;47.418;0.700;2022-07-01T04:29:59;100767.0654296875;;;10.84;89.58
44531;BME280;30240;47.418;0.700;2022-07-01T04:32:24;100770.34912109375;;;10.89;89.71
44531;BME280;30240;47.418;0.700;2022-07-01T04:34:49;100767.578125;;;10.95;89.3
44531;BME280;30240;47.418;0.700;2022-07-01T04:37:13;100767.578125;;;10.95;89.3
44531;BME280;30240;47.418;0.700;2022-07-01T04:39:40;100766.76635742188;;;10.86;89.99
44531;BME280;30240;47.418;0.700;2022-07-01T04:42:04;100764.9169921875;;;10.89;89.59
44531;BME280;30240;47.418;0.700;2022-07-01T04:44:30;100771.2646484375;;;10.96;89.58
44531;BME280;30240;47.418;0.700;2022-07-01T04:46:53;100775.42724609375;;;10.99;89.45
44531;BME280;30240;47.418;0.700;2022-07-01T04:49:18;100775.42724609375;;;10.99;89.45
44531;BME280;30240;47.418;0.700;2022-07-01T04:51:43;100775.81176757812;;;11.02;89.42
44531;BME280;30240;47.418;0.700;2022-07-01T04:54:09;100777.93579101562;;;10.98;89.55
44531;BME280;30240;47.418;0.700;2022-07-01T04:56:34;100776.77612304688;;;11.03;89.48
44531;BME280;30240;47.418;0.700;2022-07-01T04:58:59;100775.14038085938;;;11.03;89.31
44531;BME280;30240;47.418;0.700;2022-07-01T05:01:23;100775.14038085938;;;11.03;89.31
44531;BME280;30240;47.418;0.700;2022-07-01T05:03:49;100780.84106445312;;;10.99;89.56
44531;BME280;30240;47.418;0.700;2022-07-01T05:06:14;100785.07690429688;;;11.17;88.93
44531;BME280;30240;47.418;0.700;2022-07-01T05:08:38;100788.720703125;;;11.05;89.53
44531;BME280;30240;47.418;0.700;2022-07-01T05:11:03;100793.56079101562;;;11.16;89.14
44531;BME280;30240;47.418;0.700;2022-07-01T05:13:29;100793.56079101562;;;11.16;89.14
44531;BME280;30240;47.418;0.700;2022-07-01T05:15:53;100786.92016601562;;;11.2;89.12
44531;BME280;30240;47.418;0.700;2022-07-01T05:18:18;100787.44506835938;;;11.28;88.62
44531;BME280;30240;47.418;0.700;2022-07-01T05:20:43;100790.4052734375;;;11.17;88.53
44531;BME280;30240;47.418;0.700;2022-07-01T05:23:08;100794.384765625;;;11.26;88.66
44531;BME280;30240;47.418;0.700;2022-07-01T05:25:34;100797.35717773438;;;11.38;88.3
44531;BME280;30240;47.418;0.700;2022-07-01T05:27:59;100797.35717773438;;;11.38;88.3
44531;BME280;30240;47.418;0.700;2022-07-01T05:30:24;100799.51782226562;;;11.38;88.11
44531;BME280;30240;47.418;0.700;2022-07-01T05:32:48;100800.048828125;;;11.55;88.02
44531;BME280;30240;47.418;0.700;2022-07-01T05:35:14;100801.20239257812;;;11.78;87.28
44531;BME280;30240;47.418;0.700;2022-07-01T05:37:38;100802.65502929688;;;11.45;87.6
44531;BME280;30240;47.418;0.700;2022-07-01T05:40:04;100802.65502929688;;;11.45;87.6
44531;BME280;30240;47.418;0.700;2022-07-01T05:42:29;100803.466796875;;;11.59;87.37
44531;BME280;30240;47.418;0.700;2022-07-01T05:44:54;100810.43090820312;;;11.97;86.51
44531;BME280;30240;47.418;0.700;2022-07-01T05:47:18;100812.8662109375;;;11.75;87.13
44531;BME280;30240;47.418;0.700;2022-07-01T05:49:43;100810.4248046875;;;11.81;86.75
44531;BME280;30240;47.418;0.700;2022-07-01T05:52:08;100810.4248046875;;;11.81;86.75
44531;BME280;30240;47.418;0.700;2022-07-01T05:54:33;100808.984375;;;12.09;86.16
44531;BME280;30240;47.418;0.700;2022-07-01T05:56:58;100812.09106445312;;;12.09;85.76
44531;BME280;30240;47.418;0.700;2022-07-01T05:59:23;100812.6953125;;;12.0;86.23
44531;BME280;30240;47.418;0.700;2022-07-01T06:01:48;100809.40551757812;;;12.17;85.86
44531;BME280;30240;47.418;0.700;2022-07-01T06:04:13;100809.40551757812;;;12.17;85.86
44531;BME280;30240;47.418;0.700;2022-07-01T06:06:38;100808.22143554688;;;12.28;85.61
44531;BME280;30240;47.418;0.700;2022-07-01T06:09:03;100801.08032226562;;;12.35;85.31
44531;BME280;30240;47.418;0.700;2022-07-01T06:11:28;100797.74780273438;;;12.84;83.77
44531;BME280;30240;47.418;0.700;2022-07-01T06:13:53;100796.18530273438;;;13.63;80.41
44531;BME280;30240;47.418;0.700;2022-07-01T06:16:18;100796.18530273438;;;13.63;80.41
44531;BME280;30240;47.418;0.700;2022-07-01T06:18:43;100791.37573242188;;;13.6;79.68
44531;BME280;30240;47.418;0.700;2022-07-01T06:21:08;100786.4501953125;;;14.32;78.69
44531;BME280;30240;47.418;0.700;2022-07-01T06:23:33;100788.0126953125;;;14.67;76.45
44531;BME280;30240;47.418;0.700;2022-07-01T06:25:58;100788.00048828125;;;14.43;77.14
44531;BME280;30240;47.418;0.700;2022-07-01T06:28:23;100788.00048828125;;;14.43;77.14
44531;BME280;30240;47.418;0.700;2022-07-01T06:30:48;100789.794921875;;;14.7;76.4
44531;BME280;30240;47.418;0.700;2022-07-01T06:33:13;100789.27612304688;;;13.93;78.47
44531;BME280;30240;47.418;0.700;2022-07-01T06:35:39;100786.34643554688;;;14.77;76.27
44531;BME280;30240;47.418;0.700;2022-07-01T06:38:03;100789.3310546875;;;15.62;73.65
44531;BME280;30240;47.418;0.700;2022-07-01T06:40:28;100789.3310546875;;;15.62;73.65
44531;BME280;30240;47.418;0.700;2022-07-01T06:42:53;100786.57836914062;;;16.27;72.12
44531;BME280;30240;47.418;0.700;2022-07-01T06:45:19;100791.31469726562;;;15.67;73.64
44531;BME280;30240;47.418;0.700;2022-07-01T06:47:43;100791.85791015625;;;15.91;72.89
44531;BME280;30240;47.418;0.700;2022-07-01T06:50:09;100786.21215820312;;;16.8;70.07
44531;BME280;30240;47.418;0.700;2022-07-01T06:52:33;100784.9853515625;;;16.48;70.85
44531;BME280;30240;47.418;0.700;2022-07-01T06:54:58;100784.9853515625;;;16.48;70.85
44531;BME280;30240;47.418;0.700;2022-07-01T06:57:23;100785.44311523438;;;15.72;71.58
44531;BME280;30240;47.418;0.700;2022-07-01T06:59:48;100789.14794921875;;;15.12;75.24
44531;BME280;30240;47.418;0.700;2022-07-01T07:02:14;100790.0390625;;;16.13;72.14
44531;BME280;30240;47.418;0.700;2022-07-01T07:04:38;100788.04931640625;;;16.83;69.45
44531;BME280;30240;47.418;0.700;2022-07-01T07:07:03;100788.04931640625;;;16.83;69.45
44531;BME280;30240;47.418;0.700;2022-07-01T07:09:28;100794.13452148438;;;15.85;71.98
44531;BME280;30240;47.418;0.700;2022-07-01T07:11:53;100794.80590820312;;;16.8;69.74
44531;BME280;30240;47.418;0.700;2022-07-01T07:14:18;100796.2158203125;;;17.9;66.58
44531;BME280;30240;47.418;0.700;2022-07-01T07:16:43;100793.9208984375;;;16.37;72.36
44531;BME280;30240;47.418;0.700;2022-07-01T07:19:08;100793.9208984375;;;16.37;72.36
44531;BME280;30240;47.418;0.700;2022-07-01T07:21:33;100791.93725585938;;;16.01;71.67
44531;BME280;30240;47.418;0.700;2022-07-01T07:23:59;100786.63940429688;;;16.33;71.04
44531;BME280;30240;47.418;0.700;2022-07-01T07:26:24;100788.12255859375;;;17.07;68.1
44531;BME280;30240;47.418;0.700;2022-07-01T07:28:50;100787.31079101562;;;17.7;67.65
44531;BME280;30240;47.418;0.700;2022-07-01T07:31:14;100787.31079101562;;;17.7;67.65
44531;BME280;30240;47.418;0.700;2022-07-01T07:33:38;100783.23974609375;;;18.12;66.88
44531;BME280;30240;47.418;0.700;2022-07-01T07:36:04;100782.22045898438;;;16.2;70.62
44531;BME280;30240;47.418;0.700;2022-07-01T07:38:29;100777.06298828125;;;17.44;67.36
44531;BME280;30240;47.418;0.700;2022-07-01T07:40:53;100774.12719726562;;;17.69;67.33
44531;BME280;30240;47.418;0.700;2022-07-01T07:43:18;100774.12719726562;;;17.69;67.33
44531;BME280;30240;47.418;0.700;2022-07-01T07:45:44;100783.63037109375;;;16.41;69.76
44531;BME280;30240;47.418;0.700;2022-07-01T07:48:08;100779.150390625;;;17.16;68.56
44531;BME280;30240;47.418;0.700;2022-07-01T07:50:33;100773.828125;;;17.61;67.81
44531;BME280;30240;47.418;0.700;2022-07-01T07:52:58;100783.03833007812;;;18.31;64.37
44531;BME280;30240;47.418;0.700;2022-07-01T07:55:24;100783.03833007812;;;18.31;64.37
44531;BME280;30240;47.418;0.700;2022-07-01T07:57:49;100787.57934570312;;;16.87;68.22
44531;BME280;30240;47.418;0.700;2022-07-01T08:00:14;100782.94677734375;;;17.65;64.57
44531;BME280;30240;47.418;0.700;2022-07-01T08:02:39;100780.99975585938;;;18.46;63.74
44531;BME280;30240;47.418;0.700;2022-07-01T08:05:04;100787.59155273438;;;17.46;67.58
44531;BME280;30240;47.418;0.700;2022-07-01T08:07:29;100787.59155273438;;;17.46;67.58
44531;BME280;30240;47.418;0.700;2022-07-01T08:09:53;100792.919921875;;;17.9;63.81
44531;BME280;30240;47.418;0.700;2022-07-01T08:12:18;100784.12475585938;;;17.76;63.6
44531;BME280;30240;47.418;0.700;2022-07-01T08:14:44;100778.173828125;;;19.19;60.26
44531;BME280;30240;47.418;0.700;2022-07-01T08:17:09;100775.40893554688;;;17.45;65.15
44531;BME280;30240;47.418;0.700;2022-07-01T08:19:34;100775.40893554688;;;17.45;65.15
44531;BME280;30240;47.418;0.700;2022-07-01T08:21:58;100782.53173828125;;;16.76;67.42
44531;BME280;30240;47.418;0.700;2022-07-01T08:24:24;100787.18872070312;;;17.75;64.53
44531;BME280;30240;47.418;0.700;2022-07-01T08:26:48;100778.37524414062;;;18.45;62.39
44531;BME280;30240;47.418;0.700;2022-07-01T08:29:14;100787.59155273438;;;17.14;66.27
44531;BME280;30240;47.418;0.700;2022-07-01T08:31:38;100786.35864257812;;;17.98;61.6
44531;BME280;30240;47.418;0.700;2022-07-01T08:34:04;100786.35864257812;;;17.98;61.6
44531;BME280;30240;47.418;0.700;2022-07-01T08:36:29;100787.88452148438;;;18.73;58.96
44531;BME280;30240;47.418;0.700;2022-07-01T08:38:53;100783.30688476562;;;19.08;59.41
44531;BME280;30240;47.418;0.700;2022-07-01T08:41:19;100789.93530273438;;;17.82;62.39
44531;BME280;30240;47.418;0.700;2022-07-01T08:43:43;100787.890625;;;18.64;61.3
44531;BME280;30240;47.418;0.700;2022-07-01T08:46:08;100787.890625;;;18.64;61.3
44531;BME280;30240;47.418;0.700;2022-07-01T08:48:34;100790.42358398438;;;19.71;58.88
44531;BME280;30240;47.418;0.700;2022-07-01T08:50:59;100786.181640625;;;19.54;59.92
44531;BME280;30240;47.418;0.700;2022-07-01T08:53:23;100793.798828125;;;19.29;59.58
44531;BME280;30240;47.418;0.700;2022-07-01T08:55:49;100793.73168945312;;;18.53;61.61
44531;BME280;30240;47.418;0.700;2022-07-01T08:58:14;100793.73168945312;;;18.53;61.61
44531;BME280;30240;47.418;0.700;2022-07-01T09:00:39;100811.30981445312;;;18.07;63.06
44531;BME280;30240;47.418;0.700;2022-07-01T09:03:04;100801.20849609375;;;19.32;58.83
44531;BME280;30240;47.418;0.700;2022-07-01T09:05:30;100802.96630859375;;;19.39;59.25
44531;BME280;30240;47.418;0.700;2022-07-01T09:07:56;100823.01635742188;;;17.86;60.62
44531;BME280;30240;47.418;0.700;2022-07-01T09:10:19;100823.01635742188;;;17.86;60.62
44531;BME280;30240;47.418;0.700;2022-07-01T09:12:44;100817.529296875;;;18.32;58.69
44531;BME280;30240;47.418;0.700;2022-07-01T09:15:20;100799.267578125;;;20.29;55.63
44531;BME280;30240;47.418;0.700;2022-07-01T09:17:38;100815.4541015625;;;18.34;57.98
44531;BME280;30240;47.418;0.700;2022-07-01T09:19:58;100795.0927734375;;;20.67;54.78
44531;BME280;30240;47.418;0.700;2022-07-01T09:22:23;100795.0927734375;;;20.67;54.78
44531;BME280;30240;47.418;0.700;2022-07-01T09:24:51;100791.04614257812;;;21.02;50.77
44531;BME280;30240;47.418;0.700;2022-07-01T09:27:14;100788.92211914062;;;20.08;53.5
44531;BME280;30240;47.418;0.700;2022-07-01T09:29:40;100792.27294921875;;;18.7;58.92
44531;BME280;30240;47.418;0.700;2022-07-01T09:32:06;100795.73974609375;;;20.34;52.93
44531;BME280;30240;47.418;0.700;2022-07-01T09:34:32;100795.73974609375;;;20.34;52.93
44531;BME280;30240;47.418;0.700;2022-07-01T09:36:56;100790.1123046875;;;20.67;51.25
44531;BME280;30240;47.418;0.700;2022-07-01T09:39:18;100788.29956054688;;;21.99;49.65
44531;BME280;30240;47.418;0.700;2022-07-01T09:41:44;100799.24926757812;;;18.77;58.25
44531;BME280;30240;47.418;0.700;2022-07-01T09:44:09;100796.50268554688;;;20.68;51.14
44531;BME280;30240;47.418;0.700;2022-07-01T09:46:34;100796.50268554688;;;20.68;51.14
44531;BME280;30240;47.418;0.700;2022-07-01T09:48:58;100804.0771484375;;;20.4;52.04
44531;BME280;30240;47.418;0.700;2022-07-01T09:51:24;100814.56298828125;;;19.78;52.5
44531;BME280;30240;47.418;0.700;2022-07-01T09:53:48;100820.41625976562;;;19.16;55.05
44531;BME280;30240;47.418;0.700;2022-07-01T09:56:13;100828.54614257812;;;18.56;57.16
44531;BME280;30240;47.418;0.700;2022-07-01T09:58:39;100816.357421875;;;20.25;52.88
44531;BME280;30240;47.418;0.700;2022-07-01T10:01:04;100816.357421875;;;20.25;52.88
44531;BME280;30240;47.418;0.700;2022-07-01T10:03:31;100810.54077148438;;;22.79;46.43
44531;BME280;30240;47.418;0.700;2022-07-01T10:05:56;100799.79858398438;;;21.2;49.23
44531;BME280;30240;47.418;0.700;2022-07-01T10:08:24;100801.7822265625;;;22.51;45.88
44531;BME280;30240;47.418;0.700;2022-07-01T10:08:32;100801.7822265625;;;22.51;45.88
44531;BME280;30240;47.418;0.700;2022-07-01T10:08:40;100801.7822265625;;;22.51;45.88
44531;BME280;30240;47.418;0.700;2022-07-01T10:10:44;100804.59594726562;;;21.06;48.69
44531;BME280;30240;47.418;0.700;2022-07-01T10:13:10;100804.59594726562;;;21.06;48.69
44531;BME280;30240;47.418;0.700;2022-07-01T10:15:34;100825.2197265625;;;19.61;52.84
44531;BME280;30240;47.418;0.700;2022-07-01T10:17:58;100823.24829101562;;;19.98;52.46
44531;BME280;30240;47.418;0.700;2022-07-01T10:20:25;100801.78833007812;;;21.61;47.05
44531;BME280;30240;47.418;0.700;2022-07-01T10:22:49;100795.1416015625;;;21.63;47.77
44531;BME280;30240;47.418;0.700;2022-07-01T10:25:39;100795.1416015625;;;21.63;47.77
44531;BME280;30240;47.418;0.700;2022-07-01T10:27:38;100789.53247070312;;;21.22;48.1
44531;BME280;30240;47.418;0.700;2022-07-01T10:30:12;100778.466796875;;;23.32;48.21
44531;BME280;30240;47.418;0.700;2022-07-01T10:32:28;100791.9189453125;;;21.9;45.66
44531;BME280;30240;47.418;0.700;2022-07-01T10:35:03;100784.82055664062;;;22.73;47.08
44531;BME280;30240;47.418;0.700;2022-07-01T10:37:19;100784.82055664062;;;22.73;47.08
44531;BME280;30240;47.418;0.700;2022-07-01T10:39:55;100801.92260742188;;;21.99;46.95
44531;BME280;30240;47.418;0.700;2022-07-01T10:42:08;100827.57568359375;;;20.12;52.58
44531;BME280;30240;47.418;0.700;2022-07-01T10:44:35;100825.28076171875;;;19.37;53.09
44531;BME280;30240;47.418;0.700;2022-07-01T10:47:02;100820.64819335938;;;19.49;53.22
44531;BME280;30240;47.418;0.700;2022-07-01T10:49:53;100820.64819335938;;;19.49;53.22
44531;BME280;30240;47.418;0.700;2022-07-01T10:51:50;100826.64184570312;;;20.02;50.05
44531;BME280;30240;47.418;0.700;2022-07-01T10:54:50;100808.23364257812;;;22.97;44.41
44531;BME280;30240;47.418;0.700;2022-07-01T10:56:40;100800.22583007812;;;22.82;42.56
44531;BME280;30240;47.418;0.700;2022-07-01T10:59:04;100804.30297851562;;;20.25;49.83
44531;BME280;30240;47.418;0.700;2022-07-01T11:01:30;100804.30297851562;;;20.25;49.83
44531;BME280;30240;47.418;0.700;2022-07-01T11:03:55;100814.15405273438;;;19.98;50.09
44531;BME280;30240;47.418;0.700;2022-07-01T11:06:19;100816.748046875;;;20.53;49.24
44531;BME280;30240;47.418;0.700;2022-07-01T11:08:47;100801.14135742188;;;24.2;42.16
44531;BME280;30240;47.418;0.700;2022-07-01T11:11:11;100795.45288085938;;;23.31;43.13
44531;BME280;30240;47.418;0.700;2022-07-01T11:13:34;100795.45288085938;;;23.31;43.13
44531;BME280;30240;47.418;0.700;2022-07-01T11:15:59;100789.93530273438;;;23.97;39.88
44531;BME280;30240;47.418;0.700;2022-07-01T11:18:24;100781.50024414062;;;23.59;39.59